»·PEaware :: N7375Q W43-KIEN

N7375Q :: W43-KIEN

FLIGHT INFORMATION

Flight Status: Arrived
Operator: Privately registered:
United States
More flights under this callsign
Pilot: Ion I. (24133)
Aircraft: SOCATA TBM-900
(TBM9)
More flights by this aircraft type
Origin: W43 Hulett Municipal
United States
Destination: KIEN Pine Ridge
United States
More flights between these airports :: More routes between these airports
Route: LLADN1 KARAS RULER ZUNON
File this flight plan on PilotEdge
Remarks:
Altitude:
(Current/Filed)
21,000ft
Speed:
(Current/Filed)
250kts
Departed: 15-Aug-20 04:36 PM
Arrived: 15-Aug-20 05:12 PM
Distance/Time
Traveled:
132nm/0:36
Distance/Time
To Go:
Arrived

Flight Plot

Page will automatically refresh every two minutes.

Flight plan parsing failed; only flown route is shown


Map Options




Map Legend


Flown Route
Filed Route
Departure Airport
Arrival Airport
Navaid (VOR, NDB)
Fix

Horizontal Profiles

Position Reports

Time Latitude Longitude Heading Altitude Ground
Speed
15-Aug-20 16:21 44.668335 -104.571930 228 4180ft 0kts
15-Aug-20 16:22 44.668335 -104.571930 228 4180ft 0kts
15-Aug-20 16:23 44.668335 -104.571930 228 4180ft 0kts
15-Aug-20 16:24 44.668335 -104.571930 228 4180ft 0kts
15-Aug-20 16:25 44.668335 -104.571930 228 4180ft 0kts
15-Aug-20 16:26 44.668335 -104.571930 228 4180ft 0kts
15-Aug-20 16:27 44.668335 -104.571930 228 4180ft 0kts
15-Aug-20 16:29 44.668335 -104.571930 228 4180ft 0kts
15-Aug-20 16:30 44.668335 -104.571930 228 4180ft 0kts
15-Aug-20 16:31 44.668335 -104.571930 228 4180ft 0kts
15-Aug-20 16:32 44.668335 -104.571930 228 4180ft 0kts
15-Aug-20 16:33 44.665772 -104.569551 141 4187ft 29kts
15-Aug-20 16:34 44.659638 -104.562858 142 4238ft 25kts
15-Aug-20 16:35 44.656989 -104.561374 269 4255ft 6kts
15-Aug-20 16:36 44.665000 -104.570093 325 4395ft 106kts
15-Aug-20 16:37 44.655148 -104.593884 187 6444ft 124kts
15-Aug-20 16:38 44.617164 -104.597503 185 8271ft 148kts
15-Aug-20 16:39 44.574613 -104.601015 186 10037ft 160kts
15-Aug-20 16:40 44.531031 -104.591566 143 11769ft 173kts
15-Aug-20 16:41 44.491760 -104.548984 143 13502ft 183kts
15-Aug-20 16:42 44.451160 -104.505167 143 15190ft 186kts
15-Aug-20 16:43 44.410278 -104.461117 144 16861ft 185kts
15-Aug-20 16:43 44.376338 -104.424598 144 18272ft 189kts
15-Aug-20 16:45 44.326642 -104.371236 144 20336ft 199kts
15-Aug-20 16:46 44.279251 -104.320505 144 21254ft 244kts
15-Aug-20 16:46 44.246805 -104.249735 118 21221ft 273kts
15-Aug-20 16:47 44.208519 -104.156387 118 21211ft 279kts
15-Aug-20 16:49 44.162315 -104.044143 118 21169ft 301kts
15-Aug-20 16:49 44.126222 -103.956837 118 21189ft 319kts
15-Aug-20 16:50 44.081188 -103.848304 118 21177ft 327kts
15-Aug-20 16:51 44.035506 -103.738614 119 21178ft 329kts
15-Aug-20 16:52 43.989427 -103.628375 119 21178ft 330kts
15-Aug-20 16:53 43.943103 -103.517988 118 21178ft 330kts
15-Aug-20 16:54 43.896800 -103.408046 118 21177ft 329kts
15-Aug-20 16:55 43.829342 -103.326983 149 21171ft 324kts
15-Aug-20 16:56 43.753881 -103.258916 148 21218ft 323kts
15-Aug-20 16:57 43.678639 -103.191075 148 21265ft 323kts
15-Aug-20 16:58 43.603204 -103.123270 148 21230ft 325kts
15-Aug-20 16:59 43.524606 -103.052845 148 19789ft 352kts
15-Aug-20 17:00 43.442085 -102.979115 148 16920ft 356kts
15-Aug-20 17:01 43.360402 -102.906419 148 13772ft 336kts
15-Aug-20 17:02 43.288944 -102.843069 147 9755ft 289kts
15-Aug-20 17:03 43.226228 -102.787495 146 6717ft 236kts
15-Aug-20 17:04 43.177257 -102.744244 146 6228ft 219kts
15-Aug-20 17:05 43.131475 -102.684027 106 6215ft 245kts
15-Aug-20 17:06 43.092638 -102.628593 127 5352ft 146kts
15-Aug-20 17:07 43.073871 -102.596493 128 4997ft 96kts
15-Aug-20 17:08 43.056865 -102.567366 132 4429ft 93kts
15-Aug-20 17:09 43.041048 -102.540348 131 3865ft 89kts
15-Aug-20 17:10 43.024905 -102.512806 131 3305ft 85kts
15-Aug-20 17:11 43.023205 -102.509967 310 3301ft 20kts
15-Aug-20 17:12 43.024826 -102.517026 258 3291ft 17kts
15-Aug-20 17:13 43.025440 -102.517821 160 3290ft 0kts
15-Aug-20 17:14 43.025440 -102.517821 160 3290ft 0kts
15-Aug-20 17:15 43.025440 -102.517821 160 3290ft 0kts
15-Aug-20 17:16 43.025440 -102.517821 160 3290ft 0kts
15-Aug-20 17:17 43.025440 -102.517821 160 3290ft 0kts
15-Aug-20 17:18 43.025440 -102.517821 160 3290ft 0kts
15-Aug-20 17:19 43.025440 -102.517821 160 3290ft 0kts
15-Aug-20 17:20 43.025440 -102.517821 160 3290ft 0kts
15-Aug-20 17:21 43.025440 -102.517821 160 3290ft 0kts
15-Aug-20 17:22 43.025440 -102.517821 160 3290ft 0kts
15-Aug-20 17:23 43.025440 -102.517821 160 3290ft 0kts
15-Aug-20 17:24 43.025440 -102.517821 160 3290ft 0kts
15-Aug-20 17:25 43.025440 -102.517821 160 3290ft 0kts
15-Aug-20 17:26 43.025440 -102.517821 160 3290ft 0kts

Navigation Log

Ident Type
Flight plan parsing failed, navigation log unavailable